sensor_id;sensor_type;location;lat;lon;timestamp;pressure;altitude;pressure_sealevel;temperature;humidity
8416;BME280;4245;42.120;24.732;2023-05-12T00:01:10;99771.22;;;11.65;100.00
8416;BME280;4245;42.120;24.732;2023-05-12T00:03:37;99772.34;;;11.75;100.00
8416;BME280;4245;42.120;24.732;2023-05-12T00:06:04;99784.22;;;11.70;100.00
8416;BME280;4245;42.120;24.732;2023-05-12T00:08:31;99780.06;;;11.66;100.00
8416;BME280;4245;42.120;24.732;2023-05-12T00:11:00;99777.09;;;11.70;100.00
8416;BME280;4245;42.120;24.732;2023-05-12T00:13:27;99781.50;;;11.57;100.00
8416;BME280;4245;42.120;24.732;2023-05-12T00:15:54;99787.50;;;11.61;100.00
8416;BME280;4245;42.120;24.732;2023-05-12T00:18:23;99789.41;;;11.59;100.00
8416;BME280;4245;42.120;24.732;2023-05-12T00:20:50;99781.00;;;11.65;100.00
8416;BME280;4245;42.120;24.732;2023-05-12T00:23:18;99778.34;;;11.65;100.00
8416;BME280;4245;42.120;24.732;2023-05-12T00:25:45;99775.22;;;11.46;100.00
8416;BME280;4245;42.120;24.732;2023-05-12T00:28:13;99775.22;;;11.58;100.00
8416;BME280;4245;42.120;24.732;2023-05-12T00:30:40;99773.97;;;11.64;100.00
8416;BME280;4245;42.120;24.732;2023-05-12T00:33:07;99777.69;;;11.75;100.00
8416;BME280;4245;42.120;24.732;2023-05-12T00:35:34;99773.13;;;11.63;100.00
8416;BME280;4245;42.120;24.732;2023-05-12T00:38:01;99771.84;;;11.56;100.00
8416;BME280;4245;42.120;24.732;2023-05-12T00:40:28;99781.63;;;11.56;100.00
8416;BME280;4245;42.120;24.732;2023-05-12T00:42:55;99779.66;;;11.45;100.00
8416;BME280;4245;42.120;24.732;2023-05-12T00:45:23;99783.25;;;11.31;100.00
8416;BME280;4245;42.120;24.732;2023-05-12T00:47:51;99779.13;;;11.40;100.00
8416;BME280;4245;42.120;24.732;2023-05-12T00:50:19;99780.53;;;11.46;100.00
8416;BME280;4245;42.120;24.732;2023-05-12T00:52:47;99784.28;;;11.56;100.00
8416;BME280;4245;42.120;24.732;2023-05-12T00:55:14;99787.97;;;11.41;100.00
8416;BME280;4245;42.120;24.732;2023-05-12T00:57:41;99787.09;;;11.40;100.00
8416;BME280;4245;42.120;24.732;2023-05-12T01:00:10;99785.28;;;11.41;100.00
8416;BME280;4245;42.120;24.732;2023-05-12T01:02:38;99790.91;;;11.36;100.00
8416;BME280;4245;42.120;24.732;2023-05-12T01:05:06;99795.38;;;11.36;100.00
8416;BME280;4245;42.120;24.732;2023-05-12T01:07:35;99790.78;;;11.38;100.00
8416;BME280;4245;42.120;24.732;2023-05-12T01:10:02;99782.16;;;11.34;100.00
8416;BME280;4245;42.120;24.732;2023-05-12T01:12:29;99782.09;;;11.36;100.00
8416;BME280;4245;42.120;24.732;2023-05-12T01:14:58;99787.09;;;11.40;100.00
8416;BME280;4245;42.120;24.732;2023-05-12T01:17:28;99790.09;;;11.48;100.00
8416;BME280;4245;42.120;24.732;2023-05-12T01:20:00;99787.56;;;11.47;100.00
8416;BME280;4245;42.120;24.732;2023-05-12T01:22:29;99789.66;;;11.42;100.00
8416;BME280;4245;42.120;24.732;2023-05-12T01:24:58;99788.69;;;11.43;100.00
8416;BME280;4245;42.120;24.732;2023-05-12T01:27:27;99792.16;;;11.30;100.00
8416;BME280;4245;42.120;24.732;2023-05-12T01:29:57;99786.88;;;11.43;100.00
8416;BME280;4245;42.120;24.732;2023-05-12T01:32:24;99784.03;;;11.46;100.00
8416;BME280;4245;42.120;24.732;2023-05-12T01:34:51;99785.28;;;11.41;100.00
8416;BME280;4245;42.120;24.732;2023-05-12T01:37:18;99787.34;;;11.50;100.00
8416;BME280;4245;42.120;24.732;2023-05-12T01:39:45;99783.75;;;11.51;100.00
8416;BME280;4245;42.120;24.732;2023-05-12T01:42:12;99785.84;;;11.46;100.00
8416;BME280;4245;42.120;24.732;2023-05-12T01:44:40;99790.56;;;11.55;100.00
8416;BME280;4245;42.120;24.732;2023-05-12T01:47:08;99787.69;;;11.58;100.00
8416;BME280;4245;42.120;24.732;2023-05-12T01:49:35;99783.44;;;11.55;100.00
8416;BME280;4245;42.120;24.732;2023-05-12T01:52:03;99784.28;;;11.56;100.00
8416;BME280;4245;42.120;24.732;2023-05-12T01:54:30;99782.97;;;11.49;100.00
8416;BME280;4245;42.120;24.732;2023-05-12T01:56:57;99783.34;;;11.57;100.00
8416;BME280;4245;42.120;24.732;2023-05-12T01:59:23;99786.78;;;11.45;100.00
8416;BME280;4245;42.120;24.732;2023-05-12T02:01:52;99780.84;;;11.41;100.00
8416;BME280;4245;42.120;24.732;2023-05-12T02:04:19;99785.25;;;11.55;100.00
8416;BME280;4245;42.120;24.732;2023-05-12T02:06:46;99776.06;;;11.46;100.00
8416;BME280;4245;42.120;24.732;2023-05-12T02:09:13;99780.22;;;11.50;100.00
8416;BME280;4245;42.120;24.732;2023-05-12T02:11:39;99782.34;;;11.45;100.00
8416;BME280;4245;42.120;24.732;2023-05-12T02:14:06;99779.66;;;11.45;100.00
8416;BME280;4245;42.120;24.732;2023-05-12T02:16:33;99777.00;;;11.45;100.00
8416;BME280;4245;42.120;24.732;2023-05-12T02:19:02;99775.75;;;11.51;100.00
8416;BME280;4245;42.120;24.732;2023-05-12T02:21:28;99776.31;;;11.56;100.00
8416;BME280;4245;42.120;24.732;2023-05-12T02:23:55;99777.59;;;11.63;100.00
8416;BME280;4245;42.120;24.732;2023-05-12T02:26:22;99772.94;;;11.66;100.00
8416;BME280;4245;42.120;24.732;2023-05-12T02:28:49;99775.06;;;11.61;100.00
8416;BME280;4245;42.120;24.732;2023-05-12T02:31:16;99778.97;;;11.56;100.00
8416;BME280;4245;42.120;24.732;2023-05-12T02:33:43;99778.97;;;11.56;100.00
8416;BME280;4245;42.120;24.732;2023-05-12T02:36:11;99775.44;;;11.55;100.00
8416;BME280;4245;42.120;24.732;2023-05-12T02:38:38;99771.09;;;11.67;100.00
8416;BME280;4245;42.120;24.732;2023-05-12T02:41:05;99776.84;;;11.61;100.00
8416;BME280;4245;42.120;24.732;2023-05-12T02:43:32;99770.28;;;11.66;100.00
8416;BME280;4245;42.120;24.732;2023-05-12T02:45:59;99770.75;;;11.73;100.00
8416;BME280;4245;42.120;24.732;2023-05-12T02:48:26;99779.94;;;11.67;100.00
8416;BME280;4245;42.120;24.732;2023-05-12T02:50:53;99775.69;;;11.65;100.00
8416;BME280;4245;42.120;24.732;2023-05-12T02:53:21;99779.22;;;11.65;100.00
8416;BME280;4245;42.120;24.732;2023-05-12T02:55:48;99772.09;;;11.66;100.00
8416;BME280;4245;42.120;24.732;2023-05-12T02:58:15;99780.53;;;11.72;100.00
8416;BME280;4245;42.120;24.732;2023-05-12T03:00:42;99781.09;;;11.51;100.00
8416;BME280;4245;42.120;24.732;2023-05-12T03:03:09;99786.66;;;11.60;100.00
8416;BME280;4245;42.120;24.732;2023-05-12T03:05:36;99792.28;;;11.56;100.00
8416;BME280;4245;42.120;24.732;2023-05-12T03:08:04;99793.91;;;11.44;100.00
8416;BME280;4245;42.120;24.732;2023-05-12T03:10:32;99802.16;;;11.54;100.00
8416;BME280;4245;42.120;24.732;2023-05-12T03:12:59;99798.88;;;11.63;100.00
8416;BME280;4245;42.120;24.732;2023-05-12T03:15:26;99806.28;;;11.45;100.00
8416;BME280;4245;42.120;24.732;2023-05-12T03:17:53;99806.97;;;11.34;100.00
8416;BME280;4245;42.120;24.732;2023-05-12T03:20:20;99807.19;;;11.31;100.00
8416;BME280;4245;42.120;24.732;2023-05-12T03:22:47;99803.44;;;11.34;100.00
8416;BME280;4245;42.120;24.732;2023-05-12T03:25:14;99807.44;;;11.41;100.00
8416;BME280;4245;42.120;24.732;2023-05-12T03:27:42;99809.22;;;11.41;100.00
8416;BME280;4245;42.120;24.732;2023-05-12T03:30:10;99806.66;;;11.39;100.00
8416;BME280;4245;42.120;24.732;2023-05-12T03:32:37;99800.88;;;11.47;100.00
8416;BME280;4245;42.120;24.732;2023-05-12T03:35:05;99815.59;;;11.65;100.00
8416;BME280;4245;42.120;24.732;2023-05-12T03:37:32;99811.16;;;11.65;100.00
8416;BME280;4245;42.120;24.732;2023-05-12T03:39:59;99814.66;;;11.66;100.00
8416;BME280;4245;42.120;24.732;2023-05-12T03:42:26;99819.97;;;11.66;100.00
8416;BME280;4245;42.120;24.732;2023-05-12T03:44:54;99822.44;;;11.69;100.00
8416;BME280;4245;42.120;24.732;2023-05-12T03:47:21;99828.53;;;11.71;100.00
8416;BME280;4245;42.120;24.732;2023-05-12T03:49:48;99826.69;;;11.71;100.00
8416;BME280;4245;42.120;24.732;2023-05-12T03:52:15;99831.94;;;11.73;100.00
8416;BME280;4245;42.120;24.732;2023-05-12T03:54:42;99827.66;;;11.97;100.00
8416;BME280;4245;42.120;24.732;2023-05-12T03:57:09;99826.91;;;11.95;100.00
8416;BME280;4245;42.120;24.732;2023-05-12T03:59:37;99834.25;;;11.92;100.00
8416;BME280;4245;42.120;24.732;2023-05-12T04:02:05;99831.25;;;11.96;100.00
8416;BME280;4245;42.120;24.732;2023-05-12T04:04:36;99834.94;;;12.08;100.00
8416;BME280;4245;42.120;24.732;2023-05-12T04:07:03;99831.84;;;12.14;100.00
8416;BME280;4245;42.120;24.732;2023-05-12T04:09:30;99833.88;;;12.23;100.00
8416;BME280;4245;42.120;24.732;2023-05-12T04:11:57;99833.34;;;12.18;100.00
8416;BME280;4245;42.120;24.732;2023-05-12T04:14:24;99840.84;;;12.38;100.00
8416;BME280;4245;42.120;24.732;2023-05-12T04:16:51;99842.13;;;12.58;100.00
8416;BME280;4245;42.120;24.732;2023-05-12T04:19:19;99838.94;;;12.53;100.00
8416;BME280;4245;42.120;24.732;2023-05-12T04:21:46;99833.91;;;12.61;100.00
8416;BME280;4245;42.120;24.732;2023-05-12T04:24:13;99839.69;;;12.68;100.00
8416;BME280;4245;42.120;24.732;2023-05-12T04:26:40;99834.75;;;12.74;100.00
8416;BME280;4245;42.120;24.732;2023-05-12T04:29:07;99835.94;;;12.83;100.00
8416;BME280;4245;42.120;24.732;2023-05-12T04:31:34;99833.47;;;12.92;100.00
8416;BME280;4245;42.120;24.732;2023-05-12T04:34:01;99834.63;;;13.01;100.00
8416;BME280;4245;42.120;24.732;2023-05-12T04:36:29;99825.69;;;12.89;100.00
8416;BME280;4245;42.120;24.732;2023-05-12T04:38:56;99827.50;;;13.01;100.00
8416;BME280;4245;42.120;24.732;2023-05-12T04:41:23;99825.44;;;13.05;100.00
8416;BME280;4245;42.120;24.732;2023-05-12T04:43:50;99817.84;;;13.24;100.00
8416;BME280;4245;42.120;24.732;2023-05-12T04:46:17;99823.19;;;13.84;100.00
8416;BME280;4245;42.120;24.732;2023-05-12T04:48:44;99819.50;;;14.20;100.00
8416;BME280;4245;42.120;24.732;2023-05-12T04:51:11;99821.31;;;14.55;100.00
8416;BME280;4245;42.120;24.732;2023-05-12T04:53:39;99826.69;;;14.20;100.00
8416;BME280;4245;42.120;24.732;2023-05-12T04:56:07;99835.00;;;14.04;100.00
8416;BME280;4245;42.120;24.732;2023-05-12T04:58:34;99832.50;;;13.79;100.00
8416;BME280;4245;42.120;24.732;2023-05-12T05:01:01;99837.53;;;13.71;100.00
8416;BME280;4245;42.120;24.732;2023-05-12T05:03:28;99828.81;;;14.39;100.00
8416;BME280;4245;42.120;24.732;2023-05-12T05:05:55;99835.34;;;14.81;100.00
8416;BME280;4245;42.120;24.732;2023-05-12T05:08:22;99846.47;;;14.41;98.46
8416;BME280;4245;42.120;24.732;2023-05-12T05:10:50;99838.00;;;13.88;100.00
8416;BME280;4245;42.120;24.732;2023-05-12T05:13:17;99828.38;;;14.21;100.00
8416;BME280;4245;42.120;24.732;2023-05-12T05:15:53;99834.63;;;13.98;100.00
8416;BME280;4245;42.120;24.732;2023-05-12T05:18:20;99830.09;;;13.63;100.00
8416;BME280;4245;42.120;24.732;2023-05-12T05:20:47;99834.41;;;13.77;100.00
8416;BME280;4245;42.120;24.732;2023-05-12T05:23:14;99838.78;;;13.54;100.00
8416;BME280;4245;42.120;24.732;2023-05-12T05:25:41;99834.19;;;14.04;100.00
8416;BME280;4245;42.120;24.732;2023-05-12T05:28:09;99838.41;;;14.06;100.00
8416;BME280;4245;42.120;24.732;2023-05-12T05:30:36;99850.41;;;14.01;100.00
8416;BME280;4245;42.120;24.732;2023-05-12T05:33:03;99841.47;;;14.37;100.00
8416;BME280;4245;42.120;24.732;2023-05-12T05:35:30;99849.44;;;15.16;100.00
8416;BME280;4245;42.120;24.732;2023-05-12T05:37:57;99848.47;;;15.06;96.48
8416;BME280;4245;42.120;24.732;2023-05-12T05:40:24;99851.38;;;14.92;95.55
8416;BME280;4245;42.120;24.732;2023-05-12T05:42:52;99847.25;;;14.88;89.31
8416;BME280;4245;42.120;24.732;2023-05-12T05:45:20;99846.81;;;14.48;96.68
8416;BME280;4245;42.120;24.732;2023-05-12T05:47:47;99844.91;;;14.72;100.00
8416;BME280;4245;42.120;24.732;2023-05-12T05:50:16;99847.63;;;15.05;100.00
8416;BME280;4245;42.120;24.732;2023-05-12T05:52:43;99844.34;;;15.24;94.79
8416;BME280;4245;42.120;24.732;2023-05-12T05:55:10;99845.91;;;15.38;91.02
8416;BME280;4245;42.120;24.732;2023-05-12T05:57:37;99841.34;;;15.72;91.18
8416;BME280;4245;42.120;24.732;2023-05-12T06:00:05;99849.78;;;15.56;93.36
8416;BME280;4245;42.120;24.732;2023-05-12T06:02:35;99845.88;;;15.49;89.95
8416;BME280;4245;42.120;24.732;2023-05-12T06:05:03;99850.53;;;15.90;84.17
8416;BME280;4245;42.120;24.732;2023-05-12T06:07:31;99855.25;;;16.29;90.27
8416;BME280;4245;42.120;24.732;2023-05-12T06:09:58;99865.00;;;16.72;87.15
8416;BME280;4245;42.120;24.732;2023-05-12T06:12:25;99870.03;;;17.16;85.11
8416;BME280;4245;42.120;24.732;2023-05-12T06:14:52;99866.47;;;17.36;82.14
8416;BME280;4245;42.120;24.732;2023-05-12T06:17:19;99864.50;;;17.48;78.49
8416;BME280;4245;42.120;24.732;2023-05-12T06:19:47;99863.50;;;17.49;81.50
8416;BME280;4245;42.120;24.732;2023-05-12T06:22:15;99873.97;;;17.43;74.21
8416;BME280;4245;42.120;24.732;2023-05-12T06:24:42;99871.13;;;17.44;75.35
8416;BME280;4245;42.120;24.732;2023-05-12T06:27:09;99869.56;;;17.91;75.36
8416;BME280;4245;42.120;24.732;2023-05-12T06:29:36;99880.50;;;18.28;67.48
8416;BME280;4245;42.120;24.732;2023-05-12T06:32:03;99876.81;;;18.19;68.68
8416;BME280;4245;42.120;24.732;2023-05-12T06:34:30;99867.53;;;18.89;74.17
8416;BME280;4245;42.120;24.732;2023-05-12T06:36:59;99870.53;;;19.23;66.92
8416;BME280;4245;42.120;24.732;2023-05-12T06:39:26;99876.88;;;19.32;64.56
8416;BME280;4245;42.120;24.732;2023-05-12T06:41:53;99870.19;;;18.99;63.80
8416;BME280;4245;42.120;24.732;2023-05-12T06:46:55;99875.47;;;19.28;62.36
8416;BME280;4245;42.120;24.732;2023-05-12T06:49:22;99876.91;;;19.22;62.27
8416;BME280;4245;42.120;24.732;2023-05-12T06:51:49;99875.38;;;19.20;60.40
8416;BME280;4245;42.120;24.732;2023-05-12T06:54:17;99867.78;;;19.70;60.76
8416;BME280;4245;42.120;24.732;2023-05-12T06:56:44;99866.88;;;19.79;59.55
8416;BME280;4245;42.120;24.732;2023-05-12T06:59:11;99878.28;;;19.45;58.87
8416;BME280;4245;42.120;24.732;2023-05-12T07:01:38;99859.88;;;18.94;61.83
8416;BME280;4245;42.120;24.732;2023-05-12T07:04:05;99856.97;;;18.49;63.01
8416;BME280;4245;42.120;24.732;2023-05-12T07:06:32;99855.41;;;18.66;62.02
8416;BME280;4245;42.120;24.732;2023-05-12T07:08:59;99849.88;;;18.77;70.36
8416;BME280;4245;42.120;24.732;2023-05-12T07:11:27;99859.72;;;18.96;67.80
8416;BME280;4245;42.120;24.732;2023-05-12T07:13:54;99861.00;;;19.01;66.00
8416;BME280;4245;42.120;24.732;2023-05-12T07:16:21;99867.25;;;18.92;58.25
8416;BME280;4245;42.120;24.732;2023-05-12T07:18:48;99863.16;;;18.79;59.83
8416;BME280;4245;42.120;24.732;2023-05-12T07:21:15;99858.97;;;18.57;67.43
8416;BME280;4245;42.120;24.732;2023-05-12T07:23:42;99864.25;;;18.95;60.54
8416;BME280;4245;42.120;24.732;2023-05-12T07:26:09;99871.31;;;19.06;66.79
8416;BME280;4245;42.120;24.732;2023-05-12T07:28:37;99867.63;;;19.71;66.81
8416;BME280;4245;42.120;24.732;2023-05-12T07:31:05;99873.28;;;19.95;62.17
8416;BME280;4245;42.120;24.732;2023-05-12T07:33:33;99868.13;;;20.20;58.90
8416;BME280;4245;42.120;24.732;2023-05-12T07:36:00;99871.59;;;20.30;60.06
8416;BME280;4245;42.120;24.732;2023-05-12T07:38:27;99868.25;;;20.97;60.25
8416;BME280;4245;42.120;24.732;2023-05-12T07:40:54;99866.56;;;21.22;47.09
8416;BME280;4245;42.120;24.732;2023-05-12T07:43:21;99858.97;;;20.30;59.10
8416;BME280;4245;42.120;24.732;2023-05-12T07:45:50;99865.81;;;20.60;54.10
8416;BME280;4245;42.120;24.732;2023-05-12T07:48:17;99865.44;;;21.07;49.61
8416;BME280;4245;42.120;24.732;2023-05-12T07:50:43;99863.63;;;21.41;46.04
8416;BME280;4245;42.120;24.732;2023-05-12T07:53:10;99861.44;;;21.45;53.63
8416;BME280;4245;42.120;24.732;2023-05-12T07:55:37;99856.56;;;21.48;51.28
8416;BME280;4245;42.120;24.732;2023-05-12T07:58:04;99853.25;;;21.71;47.02
8416;BME280;4245;42.120;24.732;2023-05-12T08:00:31;99849.25;;;21.41;57.11
8416;BME280;4245;42.120;24.732;2023-05-12T08:02:59;99856.22;;;21.43;52.22
8416;BME280;4245;42.120;24.732;2023-05-12T08:05:26;99861.97;;;21.98;45.71
8416;BME280;4245;42.120;24.732;2023-05-12T08:07:53;99854.72;;;22.23;52.97
8416;BME280;4245;42.120;24.732;2023-05-12T08:10:20;99861.84;;;22.48;41.37
8416;BME280;4245;42.120;24.732;2023-05-12T08:12:51;99863.16;;;22.04;44.36
8416;BME280;4245;42.120;24.732;2023-05-12T08:15:18;99869.13;;;21.74;43.27
8416;BME280;4245;42.120;24.732;2023-05-12T08:17:44;99868.09;;;21.58;42.83
8416;BME280;4245;42.120;24.732;2023-05-12T08:20:13;99874.19;;;21.27;48.71
8416;BME280;4245;42.120;24.732;2023-05-12T08:22:40;99868.19;;;20.63;50.07
8416;BME280;4245;42.120;24.732;2023-05-12T08:25:07;99870.38;;;19.89;50.53
8416;BME280;4245;42.120;24.732;2023-05-12T08:27:34;99865.03;;;20.15;56.64
8416;BME280;4245;42.120;24.732;2023-05-12T08:30:01;99852.03;;;21.15;56.10
8416;BME280;4245;42.120;24.732;2023-05-12T08:32:28;99858.44;;;22.14;52.16
8416;BME280;4245;42.120;24.732;2023-05-12T08:34:55;99859.97;;;22.98;44.95
8416;BME280;4245;42.120;24.732;2023-05-12T08:37:23;99863.34;;;23.55;40.34
8416;BME280;4245;42.120;24.732;2023-05-12T08:39:50;99866.25;;;23.53;39.56
8416;BME280;4245;42.120;24.732;2023-05-12T08:42:29;99862.38;;;23.39;44.94
8416;BME280;4245;42.120;24.732;2023-05-12T08:44:58;99862.06;;;23.34;42.02
8416;BME280;4245;42.120;24.732;2023-05-12T08:47:26;99862.31;;;23.09;40.58
8416;BME280;4245;42.120;24.732;2023-05-12T08:49:58;99858.38;;;23.19;42.98
8416;BME280;4245;42.120;24.732;2023-05-12T08:52:28;99853.91;;;23.81;42.63
8416;BME280;4245;42.120;24.732;2023-05-12T08:54:55;99867.53;;;24.50;39.00
8416;BME280;4245;42.120;24.732;2023-05-12T08:57:22;99862.34;;;25.00;38.11
8416;BME280;4245;42.120;24.732;2023-05-12T08:59:52;99863.94;;;25.09;39.39
8416;BME280;4245;42.120;24.732;2023-05-12T09:02:20;99872.84;;;25.62;33.82
8416;BME280;4245;42.120;24.732;2023-05-12T09:04:48;99864.59;;;25.26;33.32
8416;BME280;4245;42.120;24.732;2023-05-12T09:07:16;99854.56;;;24.75;37.50
8416;BME280;4245;42.120;24.732;2023-05-12T09:09:47;99859.34;;;25.25;36.85
8416;BME280;4245;42.120;24.732;2023-05-12T09:12:18;99845.44;;;25.78;33.61
8416;BME280;4245;42.120;24.732;2023-05-12T09:14:50;99859.44;;;25.75;31.79
8416;BME280;4245;42.120;24.732;2023-05-12T09:17:19;99853.47;;;24.01;33.56
8416;BME280;4245;42.120;24.732;2023-05-12T09:19:46;99849.94;;;23.92;34.81
8416;BME280;4245;42.120;24.732;2023-05-12T09:22:13;99848.50;;;24.50;33.83
8416;BME280;4245;42.120;24.732;2023-05-12T09:24:41;99851.16;;;24.12;33.36
8416;BME280;4245;42.120;24.732;2023-05-12T09:27:10;99849.91;;;23.69;34.26
8416;BME280;4245;42.120;24.732;2023-05-12T09:29:46;99850.19;;;24.05;33.84
8416;BME280;4245;42.120;24.732;2023-05-12T09:32:14;99846.50;;;23.98;32.91
8416;BME280;4245;42.120;24.732;2023-05-12T09:34:42;99845.41;;;24.07;33.04
8416;BME280;4245;42.120;24.732;2023-05-12T09:37:09;99851.97;;;24.21;32.93
8416;BME280;4245;42.120;24.732;2023-05-12T09:39:35;99843.63;;;24.68;32.48
8416;BME280;4245;42.120;24.732;2023-05-12T09:42:03;99847.25;;;23.61;33.79
8416;BME280;4245;42.120;24.732;2023-05-12T09:44:37;99846.63;;;22.88;35.65
8416;BME280;4245;42.120;24.732;2023-05-12T09:47:05;99849.06;;;23.22;35.44
8416;BME280;4245;42.120;24.732;2023-05-12T09:49:32;99844.81;;;23.97;34.32
8416;BME280;4245;42.120;24.732;2023-05-12T09:51:59;99835.47;;;24.68;32.68
8416;BME280;4245;42.120;24.732;2023-05-12T09:54:27;99835.59;;;24.89;35.66
8416;BME280;4245;42.120;24.732;2023-05-12T09:56:57;99836.47;;;25.34;32.92
8416;BME280;4245;42.120;24.732;2023-05-12T09:59:28;99838.25;;;24.75;32.26
8416;BME280;4245;42.120;24.732;2023-05-12T10:02:00;99834.66;;;24.59;32.80
8416;BME280;4245;42.120;24.732;2023-05-12T10:04:27;99837.50;;;24.66;33.25
8416;BME280;4245;42.120;24.732;2023-05-12T10:06:56;99834.38;;;23.08;33.52
8416;BME280;4245;42.120;24.732;2023-05-12T10:09:27;99837.81;;;22.94;35.82
8416;BME280;4245;42.120;24.732;2023-05-12T10:11:57;99840.13;;;23.91;32.68
8416;BME280;4245;42.120;24.732;2023-05-12T10:14:24;99832.69;;;23.85;33.60
8416;BME280;4245;42.120;24.732;2023-05-12T10:16:53;99827.59;;;23.82;32.98
8416;BME280;4245;42.120;24.732;2023-05-12T10:19:21;99836.06;;;23.87;33.43
8416;BME280;4245;42.120;24.732;2023-05-12T10:21:50;99823.44;;;24.25;33.20
8416;BME280;4245;42.120;24.732;2023-05-12T10:24:18;99830.59;;;24.63;32.52
8416;BME280;4245;42.120;24.732;2023-05-12T10:26:46;99838.66;;;24.86;31.79
8416;BME280;4245;42.120;24.732;2023-05-12T10:29:14;99827.88;;;24.78;32.10
8416;BME280;4245;42.120;24.732;2023-05-12T10:31:42;99828.97;;;24.69;33.10
8416;BME280;4245;42.120;24.732;2023-05-12T10:34:15;99824.72;;;24.52;32.55
8416;BME280;4245;42.120;24.732;2023-05-12T10:36:47;99825.56;;;24.90;32.44
8416;BME280;4245;42.120;24.732;2023-05-12T10:39:15;99824.38;;;24.69;32.57
8416;BME280;4245;42.120;24.732;2023-05-12T10:41:42;99817.34;;;24.98;33.12
8416;BME280;4245;42.120;24.732;2023-05-12T10:44:09;99821.72;;;24.99;32.19
8416;BME280;4245;42.120;24.732;2023-05-12T10:46:36;99816.06;;;24.34;32.88
8416;BME280;4245;42.120;24.732;2023-05-12T10:49:07;99808.22;;;24.39;34.79
8416;BME280;4245;42.120;24.732;2023-05-12T10:51:47;99812.56;;;25.29;33.17
8416;BME280;4245;42.120;24.732;2023-05-12T10:54:19;99804.41;;;26.01;33.17
8416;BME280;4245;42.120;24.732;2023-05-12T10:56:47;99797.59;;;26.54;31.01
8416;BME280;4245;42.120;24.732;2023-05-12T10:59:15;99804.50;;;26.50;30.69
8416;BME280;4245;42.120;24.732;2023-05-12T11:01:56;99804.78;;;25.77;31.50
8416;BME280;4245;42.120;24.732;2023-05-12T11:04:34;99806.13;;;26.02;30.98
8416;BME280;4245;42.120;24.732;2023-05-12T11:07:04;99791.28;;;24.89;33.44
8416;BME280;4245;42.120;24.732;2023-05-12T11:09:34;99793.53;;;25.15;32.96
8416;BME280;4245;42.120;24.732;2023-05-12T11:12:01;99796.19;;;25.73;31.86
8416;BME280;4245;42.120;24.732;2023-05-12T11:14:28;99802.88;;;26.13;31.10
8416;BME280;4245;42.120;24.732;2023-05-12T11:16:56;99802.28;;;26.39;29.92
8416;BME280;4245;42.120;24.732;2023-05-12T11:19:22;99803.03;;;26.26;31.84
8416;BME280;4245;42.120;24.732;2023-05-12T11:21:49;99816.22;;;26.78;30.74
8416;BME280;4245;42.120;24.732;2023-05-12T11:24:19;99810.41;;;27.50;28.57
8416;BME280;4245;42.120;24.732;2023-05-12T11:26:46;99812.00;;;26.97;29.11
8416;BME280;4245;42.120;24.732;2023-05-12T11:29:16;99813.06;;;26.47;28.68
8416;BME280;4245;42.120;24.732;2023-05-12T11:31:46;99800.28;;;25.84;30.01
8416;BME280;4245;42.120;24.732;2023-05-12T11:34:13;99796.63;;;25.12;30.26
8416;BME280;4245;42.120;24.732;2023-05-12T11:36:41;99791.03;;;24.76;30.89
8416;BME280;4245;42.120;24.732;2023-05-12T11:39:12;99786.28;;;25.36;30.35
8416;BME280;4245;42.120;24.732;2023-05-12T11:41:41;99786.44;;;25.64;30.01
8416;BME280;4245;42.120;24.732;2023-05-12T11:44:14;99786.88;;;26.04;29.55
8416;BME280;4245;42.120;24.732;2023-05-12T11:46:55;99780.38;;;26.47;29.87
8416;BME280;4245;42.120;24.732;2023-05-12T11:49:23;99783.44;;;26.93;28.08
8416;BME280;4245;42.120;24.732;2023-05-12T11:51:51;99783.19;;;27.22;28.10
8416;BME280;4245;42.120;24.732;2023-05-12T11:54:18;99783.16;;;26.81;27.92
8416;BME280;4245;42.120;24.732;2023-05-12T11:56:49;99795.34;;;25.94;28.99
8416;BME280;4245;42.120;24.732;2023-05-12T11:59:29;99788.22;;;26.14;28.92
8416;BME280;4245;42.120;24.732;2023-05-12T12:01:58;99779.19;;;26.56;29.27
8416;BME280;4245;42.120;24.732;2023-05-12T12:04:32;99787.94;;;26.79;27.85
8416;BME280;4245;42.120;24.732;2023-05-12T12:07:00;99767.81;;;26.04;29.82
8416;BME280;4245;42.120;24.732;2023-05-12T12:09:31;99773.09;;;25.69;29.89
8416;BME280;4245;42.120;24.732;2023-05-12T12:12:01;99771.88;;;26.63;29.65
8416;BME280;4245;42.120;24.732;2023-05-12T12:14:30;99774.81;;;26.90;29.22
8416;BME280;4245;42.120;24.732;2023-05-12T12:16:57;99769.25;;;26.49;29.19
8416;BME280;4245;42.120;24.732;2023-05-12T12:19:24;99767.16;;;26.02;30.71
8416;BME280;4245;42.120;24.732;2023-05-12T12:21:52;99772.72;;;26.36;30.22
8416;BME280;4245;42.120;24.732;2023-05-12T12:24:19;99765.38;;;26.15;30.12
8416;BME280;4245;42.120;24.732;2023-05-12T12:26:46;99766.13;;;26.03;30.09
8416;BME280;4245;42.120;24.732;2023-05-12T12:29:14;99760.34;;;25.91;30.27
8416;BME280;4245;42.120;24.732;2023-05-12T12:31:41;99751.47;;;26.25;30.01
8416;BME280;4245;42.120;24.732;2023-05-12T12:34:08;99753.56;;;26.51;29.57
8416;BME280;4245;42.120;24.732;2023-05-12T12:36:35;99758.72;;;26.95;28.60
8416;BME280;4245;42.120;24.732;2023-05-12T12:39:02;99750.53;;;26.95;28.17
8416;BME280;4245;42.120;24.732;2023-05-12T12:41:29;99750.28;;;26.90;28.35
8416;BME280;4245;42.120;24.732;2023-05-12T12:43:56;99750.31;;;26.68;28.68
8416;BME280;4245;42.120;24.732;2023-05-12T12:46:25;99755.53;;;26.63;28.62
8416;BME280;4245;42.120;24.732;2023-05-12T12:48:52;99749.31;;;25.78;29.51
8416;BME280;4245;42.120;24.732;2023-05-12T12:51:19;99745.56;;;26.43;29.21
8416;BME280;4245;42.120;24.732;2023-05-12T12:53:46;99739.53;;;26.26;28.79
8416;BME280;4245;42.120;24.732;2023-05-12T12:56:13;99750.84;;;26.23;28.60
8416;BME280;4245;42.120;24.732;2023-05-12T12:58:40;99745.97;;;26.18;28.86
8416;BME280;4245;42.120;24.732;2023-05-12T13:01:07;99741.78;;;26.71;27.97
8416;BME280;4245;42.120;24.732;2023-05-12T13:03:35;99742.84;;;26.77;28.02
8416;BME280;4245;42.120;24.732;2023-05-12T13:06:02;99750.06;;;26.14;28.57
8416;BME280;4245;42.120;24.732;2023-05-12T13:08:29;99747.72;;;25.83;28.79
8416;BME280;4245;42.120;24.732;2023-05-12T13:10:56;99738.44;;;25.99;28.80
8416;BME280;4245;42.120;24.732;2023-05-12T13:13:23;99735.38;;;26.58;28.03